createdAt,value
2022-09-16T14:12:08.713Z,12.55
2022-09-16T14:14:46.788Z,14.77
2022-09-16T14:17:22.964Z,13.48
2022-09-16T14:19:56.014Z,17.63
2022-09-16T14:22:25.858Z,14.80
2022-09-16T14:25:05.821Z,19.23
2022-09-16T14:27:40.375Z,18.17
2022-09-16T14:30:19.287Z,14.35
2022-09-16T14:32:48.864Z,21.80
2022-09-16T14:35:15.794Z,13.27
2022-09-16T14:37:46.320Z,14.15
2022-09-16T14:40:17.217Z,17.35
2022-09-16T14:43:08.565Z,13.98
2022-09-16T14:45:38.094Z,17.42
2022-09-16T14:48:10.737Z,15.55
2022-09-16T14:50:41.720Z,17.27
2022-09-16T14:53:35.045Z,15.07
2022-09-16T14:56:05.526Z,17.92
2022-09-16T14:58:34.177Z,15.38
2022-09-16T15:01:18.450Z,17.55
2022-09-16T15:03:45.472Z,17.42
2022-09-16T15:06:18.274Z,17.13
2022-09-16T15:08:58.711Z,14.38
2022-09-16T15:11:46.948Z,17.45
2022-09-16T15:14:16.830Z,15.27
2022-09-16T15:17:03.503Z,14.52
2022-09-16T15:19:36.120Z,17.35
2022-09-16T15:22:07.654Z,13.52
2022-09-16T15:24:36.062Z,14.63
2022-09-16T15:27:03.797Z,17.65
2022-09-16T15:29:35.351Z,15.98
2022-09-16T15:32:45.805Z,16.95
2022-09-16T15:35:21.822Z,16.70
2022-09-16T15:37:49.762Z,17.38
2022-09-16T15:40:29.306Z,16.17
2022-09-16T15:43:18.840Z,14.80
2022-09-16T15:46:01.658Z,17.50
2022-09-16T15:48:43.154Z,17.15
2022-09-16T15:51:30.877Z,16.00
2022-09-16T15:54:05.950Z,17.30
2022-09-16T15:57:02.633Z,16.05
2022-09-16T15:59:40.406Z,13.80
2022-09-16T16:02:30.428Z,16.27
2022-09-16T16:05:16.713Z,17.63
2022-09-16T16:07:49.354Z,15.05
2022-09-16T16:12:56.359Z,18.33
2022-09-16T16:15:33.934Z,18.58
2022-09-16T16:18:15.280Z,19.00
2022-09-16T16:20:42.401Z,17.27
2022-09-16T16:23:09.682Z,17.48
2022-09-16T16:25:36.932Z,17.15
2022-09-16T16:28:03.941Z,19.00
2022-09-16T16:30:31.565Z,20.42
2022-09-16T16:32:58.580Z,21.45
2022-09-16T16:35:29.493Z,21.27
2022-09-16T16:37:56.661Z,19.40
2022-09-16T16:40:27.219Z,22.63
2022-09-16T16:42:54.273Z,19.85
2022-09-16T16:45:25.098Z,17.90
2022-09-16T16:47:52.156Z,18.52
2022-09-16T16:50:19.392Z,19.55
2022-09-16T16:52:50.761Z,20.20
2022-09-16T16:55:17.812Z,23.90
2022-09-16T16:57:44.882Z,23.50
2022-09-16T17:00:14.021Z,21.60
2022-09-16T17:02:41.189Z,24.40
2022-09-16T17:05:11.415Z,25.40
2022-09-16T17:07:40.772Z,23.02
2022-09-16T17:10:11.359Z,25.60
2022-09-16T17:12:38.698Z,27.23
2022-09-16T17:15:06.270Z,22.10
2022-09-16T17:17:33.969Z,21.15
2022-09-16T17:20:01.866Z,21.83
2022-09-16T17:22:30.175Z,28.27
2022-09-16T17:24:59.674Z,22.35
2022-09-16T17:27:27.947Z,20.88
2022-09-16T17:29:56.006Z,21.95
2022-09-16T17:32:23.046Z,20.33
2022-09-16T17:34:50.338Z,25.33
2022-09-16T17:37:19.990Z,20.50
2022-09-16T17:39:53.211Z,24.02
2022-09-16T17:42:20.670Z,23.98
2022-09-16T17:44:48.121Z,20.38
2022-09-16T17:47:15.316Z,23.15
2022-09-16T17:49:42.408Z,21.02
2022-09-16T17:52:09.750Z,23.98
2022-09-16T17:54:41.050Z,24.05
2022-09-16T17:57:08.342Z,26.45
2022-09-16T17:59:35.466Z,23.58
2022-09-16T18:02:02.639Z,22.67
2022-09-16T18:04:29.854Z,22.70
2022-09-16T18:06:56.993Z,21.83
2022-09-16T18:09:24.167Z,21.75
2022-09-16T18:11:51.935Z,18.48
2022-09-16T18:14:23.121Z,19.92
2022-09-16T18:18:01.366Z,22.75
2022-09-16T18:20:28.671Z,21.63
2022-09-16T18:23:01.637Z,24.25
2022-09-16T18:27:57.296Z,20.10
2022-09-16T18:30:25.163Z,19.00
2022-09-16T18:32:52.783Z,22.95
2022-09-16T18:35:19.874Z,20.75
2022-09-16T18:37:46.909Z,22.77
2022-09-16T18:40:14.155Z,23.70
2022-09-16T18:42:41.371Z,24.60
2022-09-16T18:45:08.931Z,19.58
2022-09-16T18:47:36.079Z,22.75
2022-09-16T18:50:03.695Z,21.77
2022-09-16T18:52:30.774Z,22.92
2022-09-16T18:54:58.225Z,23.23
2022-09-16T18:57:25.403Z,21.33
2022-09-16T18:59:52.374Z,24.92
2022-09-16T19:02:19.623Z,29.80
2022-09-16T19:04:46.869Z,26.55
2022-09-16T19:07:17.393Z,22.77
2022-09-16T19:09:46.151Z,31.25
2022-09-16T19:12:13.606Z,27.55
2022-09-16T19:14:41.292Z,27.20
2022-09-16T19:17:10.743Z,28.65
2022-09-16T19:19:38.833Z,27.35
2022-09-16T19:22:09.094Z,28.83
2022-09-16T19:24:37.875Z,34.05
2022-09-16T19:27:12.879Z,33.45
2022-09-16T19:32:57.684Z,34.33
2022-09-16T19:35:28.769Z,36.45
2022-09-16T19:37:55.943Z,43.45
2022-09-16T19:40:23.025Z,35.20
2022-09-16T19:42:50.257Z,32.03
2022-09-16T19:45:17.594Z,39.30
2022-09-16T19:47:44.806Z,35.58
2022-09-16T19:50:12.060Z,37.35
2022-09-16T19:52:40.838Z,35.03
2022-09-16T19:55:09.937Z,36.10
2022-09-16T19:57:37.834Z,36.17
2022-09-16T20:00:13.347Z,36.50
2022-09-16T20:02:43.584Z,37.35
2022-09-16T20:05:12.833Z,29.00
2022-09-16T20:07:40.991Z,30.17
2022-09-16T20:10:09.309Z,33.15
2022-09-16T20:12:37.969Z,27.98
2022-09-16T20:15:07.639Z,30.40
2022-09-16T20:17:38.205Z,29.80
2022-09-16T20:20:08.276Z,27.80
2022-09-16T20:22:35.343Z,26.73
2022-09-16T20:25:22.050Z,25.90
2022-09-16T20:27:49.659Z,22.55
2022-09-16T20:30:16.626Z,24.95
2022-09-16T20:32:43.734Z,25.23
2022-09-16T20:35:11.037Z,20.27
2022-09-16T20:37:37.997Z,21.23
2022-09-16T20:40:05.493Z,21.88
2022-09-16T20:42:34.582Z,20.40
2022-09-16T20:45:01.544Z,21.77
2022-09-16T20:47:30.577Z,20.35
2022-09-16T20:49:57.610Z,21.35
2022-09-16T20:52:24.582Z,18.52
2022-09-16T20:54:51.913Z,23.42
2022-09-16T20:57:18.994Z,22.80
2022-09-16T20:59:46.305Z,19.55
2022-09-16T21:02:13.460Z,24.05
2022-09-16T21:04:43.844Z,18.65
2022-09-16T21:07:21.831Z,19.83
2022-09-16T21:09:49.765Z,18.77
2022-09-16T21:12:20.847Z,18.20
2022-09-16T21:14:50.315Z,23.70
2022-09-16T21:17:20.674Z,19.00
2022-09-16T21:19:51.099Z,23.35
2022-09-16T21:22:18.183Z,21.85
2022-09-16T21:24:45.277Z,17.63
2022-09-16T21:27:12.247Z,19.67
2022-09-16T21:29:39.230Z,20.83
2022-09-16T21:32:06.278Z,20.10
2022-09-16T21:34:33.508Z,17.40
2022-09-16T21:37:00.459Z,17.30
2022-09-16T21:39:28.297Z,17.55
2022-09-16T21:41:55.274Z,17.08
2022-09-16T21:44:22.335Z,20.73
2022-09-16T21:46:49.838Z,21.27
2022-09-16T21:49:30.501Z,19.33
2022-09-16T21:51:58.726Z,25.42
2022-09-16T21:54:26.769Z,22.02
2022-09-16T21:56:53.815Z,19.35
2022-09-16T21:59:21.506Z,23.33
2022-09-16T22:01:51.223Z,23.95
2022-09-16T22:04:21.351Z,24.75
2022-09-16T22:06:49.792Z,22.77
2022-09-16T22:09:44.834Z,24.83
2022-09-16T22:12:12.017Z,25.67
2022-09-16T22:14:39.019Z,22.55
2022-09-16T22:17:06.073Z,22.27
2022-09-16T22:19:33.048Z,22.75
2022-09-16T22:22:00.257Z,18.33
2022-09-16T22:24:27.681Z,20.77
2022-09-16T22:26:54.794Z,20.23
2022-09-16T22:29:21.841Z,19.50
2022-09-16T22:31:49.229Z,19.08
2022-09-16T22:34:16.699Z,16.63
2022-09-16T22:36:43.916Z,21.02
2022-09-16T22:39:16.196Z,16.63
2022-09-16T22:41:43.555Z,16.53
2022-09-16T22:44:10.637Z,17.92
2022-09-16T22:46:46.400Z,13.55
2022-09-16T22:49:14.768Z,13.18
2022-09-16T22:51:42.594Z,17.25
2022-09-16T22:54:11.816Z,14.80
2022-09-16T22:56:38.856Z,13.27
2022-09-16T22:59:08.449Z,16.17
2022-09-16T23:01:40.451Z,13.60
2022-09-16T23:04:09.354Z,14.80
2022-09-16T23:06:39.066Z,15.35
2022-09-16T23:09:07.838Z,18.23
2022-09-16T23:11:36.060Z,14.85
2022-09-16T23:14:05.426Z,16.25
2022-09-16T23:16:36.357Z,16.52
2022-09-16T23:19:05.895Z,20.52
2022-09-16T23:21:33.578Z,18.00
2022-09-16T23:24:02.850Z,16.33
2022-09-16T23:26:32.423Z,16.05
2022-09-16T23:29:01.111Z,16.33
2022-09-16T23:31:30.888Z,19.23
2022-09-16T23:33:58.692Z,19.77
2022-09-16T23:36:27.540Z,14.85
2022-09-16T23:38:55.040Z,18.25
2022-09-16T23:41:27.656Z,19.38
2022-09-16T23:43:56.364Z,17.85
2022-09-16T23:46:26.285Z,17.02
2022-09-16T23:48:53.614Z,21.15
2022-09-16T23:51:27.365Z,20.92
2022-09-16T23:53:57.239Z,21.15
2022-09-16T23:56:24.711Z,19.33
2022-09-16T23:58:52.248Z,19.67
